首页
METAR-TAF:

METAR-TAF

机场 :

Aurora State Airport

奥罗拉, 俄勒冈州, 美国

纬度: 45-14-56N, 经度: 122-45-56W, 海拔: 59米

当前天气观测

该预报发布于47分钟前的20:53 UTC
风速6节,风向多变
温度 15°C
湿度 36%
气压 1028 hPa
能見度: 16.1公里
天空无云

METAR: KUAO 172053Z VRB06KT 10SM CLR 15/00 A3037 RMK AO2 SLP284 T01500000 57023

时间: 14:40 (21:40 UTC)

预报

该预报发布于4小时和13分钟前的17:27 UTC
预报有效从17日的 18点(UTC)到 18日的 18点(UTC)
风速8节,风向北转东北
能見度: 10公里
天空无云
从 17日的 2300点(UTC)
风速11节,风向,有时为21节阵风
能見度: 10公里
天空无云
从 18日的 0400点(UTC)
风速7节,风向北转东北
能見度: 10公里
天空无云

TAF: KUAO 171727Z 1718/1818 02008KT P6SM SKC FM172300 01011G21KT P6SM SKC FM180400 02007KT P6SM SKC

超过4000个机场的气象观测和天气预报(METAR&TAF报告)。

可查询的气象台以黄色和红色小点在地图上表示。

将鼠标移到小点上方,可查看气象台名称。

然后点击查看天气观测和预报。

如需切换地图:点击带黑十字的绿色按钮放大地图;点击带横线的绿色按钮缩小地图;或者点击绿色箭头查看邻近地区的地图。


METAR-TAF: